createdAt,value
2022-12-23T00:00:46.299Z,7.98
2022-12-23T00:03:15.887Z,7.98
2022-12-23T00:05:43.974Z,7.99
2022-12-23T00:08:12.176Z,7.97
2022-12-23T00:10:41.045Z,7.97
2022-12-23T00:13:27.187Z,7.97
2022-12-23T00:16:02.672Z,8.00
2022-12-23T00:18:35.528Z,7.98
2022-12-23T00:21:08.810Z,8.00
2022-12-23T00:23:42.890Z,8.00
2022-12-23T00:26:15.405Z,8.00
2022-12-23T00:28:46.292Z,7.99
2022-12-23T00:31:17.778Z,7.99
2022-12-23T00:33:49.041Z,7.98
2022-12-23T00:36:21.105Z,7.99
2022-12-23T00:39:07.083Z,8.01
2022-12-23T00:41:52.726Z,7.99
2022-12-23T00:44:21.281Z,7.98
2022-12-23T00:46:49.874Z,7.95
2022-12-23T00:49:38.613Z,7.96
2022-12-23T00:52:08.992Z,7.97
2022-12-23T00:54:37.138Z,7.96
2022-12-23T00:57:08.219Z,7.98
2022-12-23T00:59:36.618Z,7.97
2022-12-23T01:02:22.160Z,7.96
2022-12-23T01:05:09.311Z,7.99
2022-12-23T01:07:37.237Z,7.96
2022-12-23T01:10:07.865Z,7.94
2022-12-23T01:12:36.022Z,7.94
2022-12-23T01:15:04.368Z,7.95
2022-12-23T01:17:32.387Z,7.96
2022-12-23T01:20:01.989Z,7.95
2022-12-23T01:22:29.967Z,7.95
2022-12-23T01:24:58.275Z,7.97
2022-12-23T01:27:26.265Z,7.95
2022-12-23T01:29:54.596Z,7.97
2022-12-23T01:32:22.639Z,7.98
2022-12-23T01:34:50.660Z,7.97
2022-12-23T01:37:20.693Z,8.01
2022-12-23T01:39:48.671Z,8.00
2022-12-23T01:42:36.788Z,7.98
2022-12-23T01:45:06.836Z,7.95
2022-12-23T01:47:39.349Z,7.99
2022-12-23T01:50:12.511Z,8.01
2022-12-23T01:52:48.925Z,8.00
2022-12-23T01:55:22.057Z,8.00
2022-12-23T01:57:56.527Z,8.00
2022-12-23T02:00:42.098Z,8.02
2022-12-23T02:03:27.706Z,8.01
2022-12-23T02:06:15.826Z,8.07
2022-12-23T02:09:03.427Z,8.06
2022-12-23T02:11:48.706Z,8.08
2022-12-23T02:14:51.317Z,8.12
2022-12-23T02:17:26.515Z,8.16
2022-12-23T02:20:44.010Z,8.15
2022-12-23T02:23:38.980Z,8.18
2022-12-23T02:26:26.430Z,8.19
2022-12-23T02:29:13.973Z,8.20
2022-12-23T02:31:56.806Z,8.18
2022-12-23T02:34:35.954Z,8.19
2022-12-23T02:37:09.630Z,8.17
2022-12-23T02:39:44.239Z,8.11
2022-12-23T02:42:17.764Z,8.09
2022-12-23T02:44:48.044Z,8.05
2022-12-23T02:47:23.813Z,8.00
2022-12-23T02:49:54.356Z,7.89
2022-12-23T02:52:28.405Z,7.83
2022-12-23T02:54:59.842Z,7.69
2022-12-23T02:59:11.783Z,7.42
2022-12-23T03:01:41.055Z,7.30
2022-12-23T03:04:11.418Z,7.23
2022-12-23T03:06:42.620Z,7.17
2022-12-23T03:09:17.587Z,7.08
2022-12-23T03:11:52.008Z,7.09
2022-12-23T03:14:43.173Z,7.14
2022-12-23T03:17:26.626Z,7.18
2022-12-23T03:19:56.904Z,7.25
2022-12-23T03:22:31.427Z,7.26
2022-12-23T03:25:07.015Z,7.24
2022-12-23T03:27:41.059Z,7.18
2022-12-23T03:30:15.479Z,7.11
2022-12-23T03:32:50.631Z,7.06
2022-12-23T03:35:22.666Z,7.01
2022-12-23T03:37:55.536Z,6.98
2022-12-23T03:40:26.551Z,6.99
2022-12-23T03:43:02.410Z,6.98
2022-12-23T03:45:39.172Z,6.99
2022-12-23T03:48:12.734Z,7.01
2022-12-23T03:50:42.883Z,7.05
2022-12-23T03:53:15.202Z,7.06
2022-12-23T03:55:49.279Z,7.13
2022-12-23T03:58:26.113Z,7.09
2022-12-23T04:01:01.735Z,7.02
2022-12-23T04:03:36.925Z,6.94
2022-12-23T04:06:08.414Z,6.93
2022-12-23T04:08:44.833Z,6.93
2022-12-23T04:11:13.907Z,6.98
2022-12-23T04:13:44.630Z,7.01
2022-12-23T04:16:14.195Z,7.18
2022-12-23T04:18:42.373Z,7.24
2022-12-23T04:21:10.323Z,7.30
2022-12-23T04:23:40.407Z,7.36
2022-12-23T04:26:08.396Z,7.44
2022-12-23T04:28:36.751Z,7.44
2022-12-23T04:31:05.041Z,7.41
2022-12-23T04:33:34.721Z,7.39
2022-12-23T04:36:02.885Z,7.32
2022-12-23T04:38:30.889Z,7.33
2022-12-23T04:40:59.257Z,7.40
2022-12-23T04:43:27.375Z,7.45
2022-12-23T04:45:55.492Z,7.45
2022-12-23T04:48:23.448Z,7.41
2022-12-23T04:50:53.181Z,7.44
2022-12-23T04:53:21.418Z,7.43
2022-12-23T04:55:51.520Z,7.42
2022-12-23T04:58:21.948Z,7.44
2022-12-23T05:00:50.132Z,7.43
2022-12-23T05:03:20.468Z,7.43
2022-12-23T05:05:48.871Z,7.35
2022-12-23T05:08:18.270Z,7.33
2022-12-23T05:10:46.622Z,7.33
2022-12-23T05:13:14.714Z,7.36
2022-12-23T05:15:45.122Z,7.39
2022-12-23T05:18:15.643Z,7.40
2022-12-23T05:20:43.967Z,7.43
2022-12-23T05:23:12.511Z,7.44
2022-12-23T05:25:42.195Z,7.44
2022-12-23T05:28:10.449Z,7.50
2022-12-23T05:30:38.463Z,7.51
2022-12-23T05:33:06.665Z,7.49
2022-12-23T05:35:34.831Z,7.52
2022-12-23T05:38:03.553Z,7.54
2022-12-23T05:40:32.100Z,7.52
2022-12-23T05:43:03.619Z,7.52
2022-12-23T05:45:31.717Z,7.52
2022-12-23T05:47:59.757Z,7.51
2022-12-23T05:50:30.946Z,7.51
2022-12-23T05:53:02.923Z,7.51
2022-12-23T05:55:31.066Z,7.52
2022-12-23T05:57:59.729Z,7.55
2022-12-23T06:00:29.514Z,7.59
2022-12-23T06:02:58.020Z,7.59
2022-12-23T06:05:26.147Z,7.64
2022-12-23T06:07:54.432Z,7.76
2022-12-23T06:10:22.530Z,7.91
2022-12-23T06:12:53.205Z,8.01
2022-12-23T06:15:21.175Z,8.09
2022-12-23T06:17:50.741Z,8.08
2022-12-23T06:20:20.984Z,8.06
2022-12-23T06:22:49.579Z,7.99
2022-12-23T06:25:17.737Z,7.88
2022-12-23T06:27:48.169Z,7.78
2022-12-23T06:30:16.375Z,7.71
2022-12-23T06:32:44.619Z,7.61
2022-12-23T06:35:14.000Z,7.51
2022-12-23T06:37:42.083Z,7.39
2022-12-23T06:40:11.325Z,7.30
2022-12-23T06:42:39.584Z,7.31
2022-12-23T06:45:08.583Z,7.27
2022-12-23T06:47:36.495Z,7.27
2022-12-23T06:50:07.901Z,7.27
2022-12-23T06:52:37.365Z,7.23
2022-12-23T06:55:06.511Z,7.21
2022-12-23T06:57:36.885Z,7.18
2022-12-23T07:00:08.320Z,7.19
2022-12-23T07:02:38.745Z,7.19
2022-12-23T07:05:10.310Z,7.29
2022-12-23T07:07:39.591Z,7.36
2022-12-23T07:10:08.892Z,7.39
2022-12-23T07:12:37.319Z,7.39
2022-12-23T07:15:06.613Z,7.36
2022-12-23T07:17:34.714Z,7.24
2022-12-23T07:20:05.969Z,7.24
2022-12-23T07:22:36.632Z,7.14
2022-12-23T07:25:10.005Z,7.02
2022-12-23T07:27:37.961Z,6.95
2022-12-23T07:30:07.202Z,6.95
2022-12-23T07:32:35.136Z,6.96
2022-12-23T07:35:03.223Z,7.00
2022-12-23T07:37:31.325Z,7.09
2022-12-23T07:40:05.001Z,7.23
2022-12-23T07:42:46.881Z,7.39
2022-12-23T07:45:15.247Z,7.49
2022-12-23T07:47:46.118Z,7.56
2022-12-23T07:50:14.657Z,7.63
2022-12-23T07:52:44.904Z,7.68
2022-12-23T07:55:13.402Z,7.72
2022-12-23T08:00:12.276Z,7.74
2022-12-23T08:02:44.083Z,7.77
2022-12-23T08:05:13.719Z,7.80
2022-12-23T08:07:45.045Z,7.87
2022-12-23T08:10:13.868Z,7.94
2022-12-23T08:12:42.130Z,8.04
2022-12-23T08:15:11.811Z,8.02
2022-12-23T08:17:39.711Z,8.02
2022-12-23T08:20:08.869Z,8.05
2022-12-23T08:22:36.821Z,8.10
2022-12-23T08:25:05.427Z,8.13
2022-12-23T08:27:35.747Z,8.17
2022-12-23T08:30:03.800Z,8.19
2022-12-23T08:32:33.086Z,8.18
2022-12-23T08:35:01.306Z,8.23
2022-12-23T08:37:29.219Z,8.30
2022-12-23T08:39:57.445Z,8.39
2022-12-23T08:42:25.381Z,8.43
2022-12-23T08:44:53.498Z,8.46
2022-12-23T08:47:23.809Z,8.44
2022-12-23T08:49:53.227Z,8.52
2022-12-23T08:52:21.076Z,8.54
2022-12-23T08:54:51.510Z,8.49
2022-12-23T08:57:19.685Z,8.56
2022-12-23T08:59:51.731Z,8.62
2022-12-23T09:02:22.389Z,8.71
2022-12-23T09:04:50.432Z,8.74
2022-12-23T09:07:19.813Z,8.69
2022-12-23T09:09:48.146Z,8.66
2022-12-23T09:12:18.424Z,8.64
2022-12-23T09:14:47.594Z,8.70
2022-12-23T09:17:15.569Z,8.75
2022-12-23T09:19:48.631Z,8.72
2022-12-23T09:22:21.786Z,8.78
2022-12-23T09:24:49.777Z,8.77
2022-12-23T09:27:17.726Z,8.78
2022-12-23T09:29:47.960Z,8.73
2022-12-23T09:32:16.085Z,8.69
2022-12-23T09:34:46.551Z,8.74
2022-12-23T09:37:16.688Z,8.72
2022-12-23T09:39:45.900Z,8.75
2022-12-23T09:42:35.093Z,8.66
2022-12-23T09:45:25.561Z,8.77
2022-12-23T09:47:57.730Z,8.80
2022-12-23T09:50:30.699Z,8.82
2022-12-23T09:53:03.679Z,8.78
2022-12-23T09:55:45.085Z,8.80
2022-12-23T09:58:24.150Z,8.85
2022-12-23T10:01:06.965Z,8.85
2022-12-23T10:03:46.111Z,8.83
2022-12-23T10:06:21.022Z,8.85
2022-12-23T10:08:54.055Z,8.86
2022-12-23T10:11:26.438Z,8.85
2022-12-23T10:13:57.661Z,8.91
2022-12-23T10:16:28.515Z,8.93
2022-12-23T10:19:01.292Z,8.89
2022-12-23T10:21:34.444Z,8.84
2022-12-23T10:24:06.331Z,8.87
2022-12-23T10:26:47.596Z,8.91
2022-12-23T10:29:19.355Z,8.95
2022-12-23T10:32:04.032Z,9.04
2022-12-23T10:34:46.303Z,9.10
2022-12-23T10:37:21.504Z,9.16
2022-12-23T10:40:01.036Z,9.21
2022-12-23T10:42:37.607Z,9.20
2022-12-23T10:45:29.645Z,9.11
2022-12-23T10:48:13.587Z,9.15
2022-12-23T10:50:58.739Z,9.16
2022-12-23T10:53:36.701Z,9.15
2022-12-23T10:56:07.394Z,9.15
2022-12-23T10:58:41.483Z,9.19
2022-12-23T11:01:22.117Z,9.13
2022-12-23T11:04:02.774Z,9.18
2022-12-23T11:06:37.510Z,9.17
2022-12-23T11:09:10.954Z,9.15
2022-12-23T11:11:58.659Z,9.13
2022-12-23T11:14:37.201Z,9.11
2022-12-23T11:17:07.250Z,9.13
2022-12-23T11:19:35.241Z,9.11
2022-12-23T11:22:03.396Z,9.07
2022-12-23T11:24:38.049Z,9.17
2022-12-23T11:27:17.052Z,9.21
2022-12-23T11:29:50.316Z,9.27
2022-12-23T11:32:23.110Z,9.27
2022-12-23T11:34:54.991Z,9.26
2022-12-23T11:37:33.029Z,9.28
2022-12-23T11:40:01.012Z,9.29
2022-12-23T11:42:31.312Z,9.35
2022-12-23T11:45:01.205Z,9.35
2022-12-23T11:47:35.138Z,9.34
2022-12-23T11:50:33.261Z,9.38
2022-12-23T11:53:20.768Z,9.39
2022-12-23T11:56:01.060Z,9.39
2022-12-23T11:58:31.161Z,9.38
2022-12-23T12:01:09.219Z,9.43
2022-12-23T12:03:46.306Z,9.43
2022-12-23T12:06:17.103Z,9.38
2022-12-23T12:08:49.080Z,9.41
2022-12-23T12:11:20.139Z,9.41
2022-12-23T12:13:51.093Z,9.42
2022-12-23T12:16:39.731Z,9.40
2022-12-23T12:19:16.803Z,9.44
2022-12-23T12:21:50.392Z,9.44
2022-12-23T12:24:23.682Z,9.46
2022-12-23T12:26:54.989Z,9.51
2022-12-23T12:29:31.827Z,9.51
2022-12-23T12:32:06.644Z,9.52
2022-12-23T12:34:46.401Z,9.53
2022-12-23T12:37:26.914Z,9.54
2022-12-23T12:40:00.871Z,9.56
2022-12-23T12:42:37.665Z,9.58
2022-12-23T12:45:17.931Z,9.60
2022-12-23T12:48:06.050Z,9.60
2022-12-23T12:50:55.593Z,9.61
2022-12-23T12:53:26.664Z,9.65
2022-12-23T12:56:01.402Z,9.65
2022-12-23T13:01:29.996Z,9.63
2022-12-23T13:04:41.065Z,9.65
2022-12-23T13:07:24.664Z,9.68
2022-12-23T13:10:02.376Z,9.73
2022-12-23T13:12:41.436Z,9.73
2022-12-23T13:15:21.240Z,9.77
2022-12-23T13:18:09.064Z,9.82
2022-12-23T13:20:43.967Z,9.84
2022-12-23T13:23:42.246Z,9.85
2022-12-23T13:26:13.817Z,9.88
2022-12-23T13:28:50.996Z,9.94
2022-12-23T13:31:30.883Z,9.97
2022-12-23T13:34:06.906Z,10.00
2022-12-23T13:36:45.946Z,10.05
2022-12-23T13:39:33.037Z,10.08
2022-12-23T13:42:05.763Z,10.11
2022-12-23T13:44:36.889Z,10.14
2022-12-23T13:47:14.608Z,10.02
2022-12-23T13:49:57.363Z,10.16
2022-12-23T13:52:37.540Z,10.21
2022-12-23T13:55:20.285Z,10.24
2022-12-23T13:57:57.761Z,10.26
2022-12-23T14:00:29.075Z,10.28
2022-12-23T14:03:20.380Z,10.32
2022-12-23T14:05:51.345Z,10.37
2022-12-23T14:08:27.186Z,10.36
2022-12-23T14:10:58.591Z,10.40
2022-12-23T14:13:30.674Z,10.38
2022-12-23T14:16:30.657Z,10.40
2022-12-23T14:19:24.124Z,10.41
2022-12-23T14:22:03.303Z,10.42
2022-12-23T14:25:01.758Z,10.45
2022-12-23T14:27:41.238Z,10.47
2022-12-23T14:30:15.118Z,10.49
2022-12-23T14:32:45.022Z,10.52
2022-12-23T14:35:24.771Z,10.50
2022-12-23T14:38:11.556Z,10.54
2022-12-23T14:40:59.842Z,10.59
2022-12-23T14:43:56.913Z,10.61
2022-12-23T14:46:58.210Z,10.61
2022-12-23T14:49:47.715Z,10.64
2022-12-23T14:52:58.443Z,10.65
2022-12-23T14:55:48.075Z,10.68
2022-12-23T14:58:35.237Z,10.70
2022-12-23T15:01:12.778Z,10.72
2022-12-23T15:03:47.510Z,10.75
2022-12-23T15:06:20.454Z,10.75
2022-12-23T15:08:53.055Z,10.75
2022-12-23T15:11:29.508Z,10.78
2022-12-23T15:13:59.757Z,10.78
2022-12-23T15:16:32.790Z,10.83
2022-12-23T15:19:03.412Z,10.82
2022-12-23T15:21:34.068Z,10.86
2022-12-23T15:24:04.539Z,10.87
2022-12-23T15:26:36.877Z,10.88
2022-12-23T15:29:08.801Z,10.92
2022-12-23T15:31:42.484Z,10.93
2022-12-23T15:34:17.505Z,11.00
2022-12-23T15:36:46.940Z,10.99
2022-12-23T15:39:21.669Z,11.00
2022-12-23T15:41:51.630Z,11.01
2022-12-23T15:44:22.385Z,11.02
2022-12-23T15:46:50.992Z,11.04
2022-12-23T15:49:20.904Z,11.02
2022-12-23T15:52:13.985Z,11.01
2022-12-23T15:54:47.115Z,11.00
2022-12-23T15:57:20.343Z,10.94
2022-12-23T15:59:48.935Z,10.95
2022-12-23T16:05:10.002Z,10.97
2022-12-23T16:07:41.882Z,10.95
2022-12-23T16:10:15.260Z,10.93
2022-12-23T16:12:45.608Z,10.91
2022-12-23T16:15:22.683Z,10.89
2022-12-23T16:17:50.894Z,10.90
2022-12-23T16:20:24.314Z,10.90
2022-12-23T16:22:56.027Z,10.91
2022-12-23T16:25:26.532Z,10.90
2022-12-23T16:27:59.974Z,10.89
2022-12-23T16:30:30.156Z,10.89
2022-12-23T16:33:02.286Z,10.91
2022-12-23T16:35:35.008Z,10.94
2022-12-23T16:38:15.406Z,10.93
2022-12-23T16:40:45.085Z,10.91
2022-12-23T16:43:15.520Z,10.89
2022-12-23T16:45:45.331Z,10.91
2022-12-23T16:48:26.437Z,10.90
2022-12-23T16:50:56.876Z,10.98
2022-12-23T16:53:24.840Z,11.01
2022-12-23T16:55:58.517Z,11.02
2022-12-23T16:58:30.506Z,11.05
2022-12-23T17:01:01.354Z,11.05
2022-12-23T17:03:29.480Z,11.03
2022-12-23T17:05:59.883Z,11.08
2022-12-23T17:08:27.757Z,11.12
2022-12-23T17:10:57.363Z,11.17
2022-12-23T17:13:25.306Z,11.13
2022-12-23T17:15:54.943Z,11.12
2022-12-23T17:18:22.888Z,11.08
2022-12-23T17:20:51.239Z,11.05
2022-12-23T17:23:28.891Z,11.04
2022-12-23T17:25:59.577Z,11.03
2022-12-23T17:28:32.067Z,10.99
2022-12-23T17:31:01.761Z,10.95
2022-12-23T17:33:32.194Z,10.94
2022-12-23T17:36:01.051Z,10.96
2022-12-23T17:38:29.989Z,10.95
2022-12-23T17:40:59.597Z,10.98
2022-12-23T17:43:28.305Z,10.98
2022-12-23T17:45:56.833Z,10.95
2022-12-23T17:48:31.445Z,11.01
2022-12-23T17:51:00.151Z,-150.39
2022-12-23T17:53:30.166Z,-150.39
2022-12-23T17:56:00.641Z,-150.39
2022-12-23T17:58:28.729Z,-150.39
2022-12-23T18:02:25.086Z,11.13
2022-12-23T18:04:53.971Z,11.06
2022-12-23T18:07:22.169Z,11.10
2022-12-23T18:09:50.763Z,11.05
2022-12-23T18:12:25.422Z,11.08
2022-12-23T18:14:56.761Z,11.06
2022-12-23T18:17:26.371Z,11.02
2022-12-23T18:19:54.815Z,10.94
2022-12-23T18:22:25.511Z,10.93
2022-12-23T18:24:58.949Z,10.86
2022-12-23T18:27:27.712Z,10.82
2022-12-23T18:29:55.635Z,10.74
2022-12-23T18:32:29.260Z,10.70
2022-12-23T18:34:59.375Z,10.63
2022-12-23T18:37:27.878Z,10.52
2022-12-23T18:39:57.957Z,10.46
2022-12-23T18:42:26.164Z,10.37
2022-12-23T18:44:54.093Z,10.37
2022-12-23T18:47:22.289Z,10.34
2022-12-23T18:49:53.557Z,10.32
2022-12-23T18:52:21.737Z,10.27
2022-12-23T18:54:49.632Z,10.24
2022-12-23T18:57:17.860Z,10.32
2022-12-23T18:59:45.768Z,10.30
2022-12-23T19:02:15.201Z,10.35
2022-12-23T19:04:43.610Z,10.33
2022-12-23T19:07:13.453Z,10.41
2022-12-23T19:09:41.695Z,10.53
2022-12-23T19:12:11.925Z,10.68
2022-12-23T19:14:40.187Z,10.79
2022-12-23T19:17:08.281Z,10.82
2022-12-23T19:19:36.523Z,10.84
2022-12-23T19:22:04.515Z,10.82
2022-12-23T19:24:37.763Z,10.80
2022-12-23T19:27:13.553Z,10.74
2022-12-23T19:29:41.839Z,10.73
2022-12-23T19:32:10.113Z,10.68
2022-12-23T19:34:38.222Z,10.65
2022-12-23T19:37:06.577Z,10.66
2022-12-23T19:39:36.165Z,10.66
2022-12-23T19:42:04.433Z,10.67
2022-12-23T19:44:35.926Z,10.68
2022-12-23T19:47:05.119Z,10.70
2022-12-23T19:49:35.321Z,10.71
2022-12-23T19:52:04.360Z,10.68
2022-12-23T19:54:32.607Z,10.69
2022-12-23T19:57:02.212Z,10.69
2022-12-23T19:59:30.163Z,10.63
2022-12-23T20:02:01.466Z,10.62
2022-12-23T20:04:29.517Z,10.56
2022-12-23T20:06:57.655Z,10.52
2022-12-23T20:09:28.511Z,10.47
2022-12-23T20:11:56.984Z,10.45
2022-12-23T20:14:32.319Z,10.39
2022-12-23T20:17:03.576Z,10.39
2022-12-23T20:19:31.824Z,10.38
2022-12-23T20:21:59.913Z,10.35
2022-12-23T20:24:32.902Z,10.27
2022-12-23T20:27:09.321Z,10.14
2022-12-23T20:29:44.157Z,10.06
2022-12-23T20:32:12.120Z,9.97
2022-12-23T20:34:40.496Z,9.90
2022-12-23T20:37:11.922Z,9.86
2022-12-23T20:39:40.039Z,9.82
2022-12-23T20:42:10.287Z,9.72
2022-12-23T20:44:38.842Z,9.60
2022-12-23T20:47:11.050Z,9.51
2022-12-23T20:49:39.178Z,9.41
2022-12-23T20:52:07.131Z,9.31
2022-12-23T20:54:35.418Z,9.20
2022-12-23T20:57:03.886Z,9.15
2022-12-23T20:59:33.327Z,9.11
2022-12-23T21:02:04.604Z,9.15
2022-12-23T21:04:34.347Z,9.15
2022-12-23T21:07:04.399Z,9.21
2022-12-23T21:09:33.136Z,9.28
2022-12-23T21:12:01.038Z,9.37
2022-12-23T21:14:32.085Z,9.41
2022-12-23T21:17:00.107Z,9.40
2022-12-23T21:19:28.370Z,9.45
2022-12-23T21:21:58.543Z,9.50
2022-12-23T21:24:26.851Z,9.54
2022-12-23T21:26:56.929Z,9.57
2022-12-23T21:29:26.694Z,9.64
2022-12-23T21:31:54.978Z,9.66
2022-12-23T21:34:23.395Z,9.64
2022-12-23T21:36:51.678Z,9.65
2022-12-23T21:39:21.063Z,9.68
2022-12-23T21:41:51.551Z,9.70
2022-12-23T21:44:19.670Z,9.66
2022-12-23T21:46:50.301Z,9.69
2022-12-23T21:49:18.688Z,9.68
2022-12-23T21:51:46.662Z,9.58
2022-12-23T21:54:15.182Z,9.53
2022-12-23T21:56:44.589Z,9.49
2022-12-23T21:59:14.674Z,9.49
2022-12-23T22:01:43.246Z,9.56
2022-12-23T22:04:11.711Z,9.58
2022-12-23T22:06:43.688Z,9.55
2022-12-23T22:09:14.480Z,9.47
2022-12-23T22:11:44.069Z,9.38
2022-12-23T22:14:14.374Z,9.36
2022-12-23T22:16:42.767Z,9.28
2022-12-23T22:19:13.232Z,9.27
2022-12-23T22:21:42.587Z,9.27
2022-12-23T22:24:11.626Z,9.22
2022-12-23T22:26:41.043Z,9.31
2022-12-23T22:29:12.164Z,9.23
2022-12-23T22:31:46.048Z,9.21
2022-12-23T22:34:16.183Z,9.30
2022-12-23T22:36:47.696Z,9.39
2022-12-23T22:39:21.174Z,9.40
2022-12-23T22:41:52.791Z,9.40
2022-12-23T22:44:22.844Z,9.59
2022-12-23T22:46:53.099Z,9.57
2022-12-23T22:49:21.721Z,9.46
2022-12-23T22:51:49.697Z,9.63
2022-12-23T22:54:17.943Z,9.55
2022-12-23T22:56:46.698Z,9.49
2022-12-23T22:59:21.735Z,9.47
2022-12-23T23:03:15.193Z,9.47
2022-12-23T23:05:43.467Z,9.49
2022-12-23T23:08:14.538Z,9.49
2022-12-23T23:10:45.369Z,9.44
2022-12-23T23:13:13.328Z,9.31
2022-12-23T23:15:41.436Z,9.20
2022-12-23T23:18:09.626Z,9.10
2022-12-23T23:20:39.024Z,9.06
2022-12-23T23:23:07.345Z,8.94
2022-12-23T23:25:35.317Z,8.91
2022-12-23T23:28:03.393Z,8.96
2022-12-23T23:30:33.626Z,8.93
2022-12-23T23:33:01.613Z,8.95
2022-12-23T23:35:29.974Z,9.09
2022-12-23T23:37:59.333Z,9.19
2022-12-23T23:40:28.186Z,9.22
2022-12-23T23:42:56.125Z,9.34
2022-12-23T23:45:24.396Z,9.44
2022-12-23T23:47:52.661Z,9.33
2022-12-23T23:50:21.102Z,9.40
2022-12-23T23:52:49.211Z,9.35
2022-12-23T23:55:18.854Z,9.33
2022-12-23T23:57:47.045Z,9.24
